sensor_id;sensor_type;location;lat;lon;timestamp;temperature;humidity
22081;DHT22;11207;59.512;18.050;2022-09-27T00:01:06;11.10;99.90
22081;DHT22;11207;59.512;18.050;2022-09-27T00:03:32;11.00;99.90
22081;DHT22;11207;59.512;18.050;2022-09-27T00:06:24;11.10;99.90
22081;DHT22;11207;59.512;18.050;2022-09-27T00:08:50;11.10;99.90
22081;DHT22;11207;59.512;18.050;2022-09-27T00:13:48;11.10;99.90
22081;DHT22;11207;59.512;18.050;2022-09-27T00:16:13;11.10;99.90
22081;DHT22;11207;59.512;18.050;2022-09-27T00:18:39;11.10;99.90
22081;DHT22;11207;59.512;18.050;2022-09-27T00:21:10;11.10;99.90
22081;DHT22;11207;59.512;18.050;2022-09-27T00:23:36;11.10;99.90
22081;DHT22;11207;59.512;18.050;2022-09-27T00:26:03;11.10;99.90
22081;DHT22;11207;59.512;18.050;2022-09-27T00:28:29;11.00;99.90
22081;DHT22;11207;59.512;18.050;2022-09-27T00:30:56;11.00;99.90
22081;DHT22;11207;59.512;18.050;2022-09-27T00:33:22;11.00;99.90
22081;DHT22;11207;59.512;18.050;2022-09-27T00:35:48;11.00;99.90
22081;DHT22;11207;59.512;18.050;2022-09-27T00:38:14;11.00;99.90
22081;DHT22;11207;59.512;18.050;2022-09-27T00:40:39;11.00;99.90
22081;DHT22;11207;59.512;18.050;2022-09-27T00:43:20;10.90;99.90
22081;DHT22;11207;59.512;18.050;2022-09-27T00:45:50;11.00;99.90
22081;DHT22;11207;59.512;18.050;2022-09-27T00:48:21;11.00;99.90
22081;DHT22;11207;59.512;18.050;2022-09-27T00:50:50;11.20;99.90
22081;DHT22;11207;59.512;18.050;2022-09-27T00:56:08;11.30;99.90
22081;DHT22;11207;59.512;18.050;2022-09-27T00:58:40;11.30;99.90
22081;DHT22;11207;59.512;18.050;2022-09-27T01:01:08;11.30;99.90
22081;DHT22;11207;59.512;18.050;2022-09-27T01:03:51;11.30;99.90
22081;DHT22;11207;59.512;18.050;2022-09-27T01:06:20;11.20;99.90
22081;DHT22;11207;59.512;18.050;2022-09-27T01:08:45;11.20;99.90
22081;DHT22;11207;59.512;18.050;2022-09-27T01:11:26;11.20;99.90
22081;DHT22;11207;59.512;18.050;2022-09-27T01:22:10;11.00;99.90
22081;DHT22;11207;59.512;18.050;2022-09-27T01:27:38;11.00;99.90
22081;DHT22;11207;59.512;18.050;2022-09-27T01:32:49;11.00;99.90
22081;DHT22;11207;59.512;18.050;2022-09-27T01:41:14;11.00;99.90
22081;DHT22;11207;59.512;18.050;2022-09-27T01:46:26;11.00;99.90
22081;DHT22;11207;59.512;18.050;2022-09-27T01:48:57;11.00;99.90
22081;DHT22;11207;59.512;18.050;2022-09-27T01:51:44;11.00;99.90
22081;DHT22;11207;59.512;18.050;2022-09-27T01:54:16;11.00;99.90
22081;DHT22;11207;59.512;18.050;2022-09-27T01:56:47;10.90;99.90
22081;DHT22;11207;59.512;18.050;2022-09-27T02:01:49;10.90;99.90
22081;DHT22;11207;59.512;18.050;2022-09-27T02:04:21;10.80;99.90
22081;DHT22;11207;59.512;18.050;2022-09-27T02:06:52;10.80;99.90
22081;DHT22;11207;59.512;18.050;2022-09-27T02:09:30;10.80;99.90
22081;DHT22;11207;59.512;18.050;2022-09-27T02:12:03;10.80;99.90
22081;DHT22;11207;59.512;18.050;2022-09-27T02:14:50;11.00;99.90
22081;DHT22;11207;59.512;18.050;2022-09-27T02:20:16;11.10;99.90
22081;DHT22;11207;59.512;18.050;2022-09-27T02:22:58;11.10;99.90
22081;DHT22;11207;59.512;18.050;2022-09-27T02:25:45;11.10;99.90
22081;DHT22;11207;59.512;18.050;2022-09-27T02:28:35;11.10;99.90
22081;DHT22;11207;59.512;18.050;2022-09-27T02:31:02;11.00;99.90
22081;DHT22;11207;59.512;18.050;2022-09-27T02:36:08;11.10;99.90
22081;DHT22;11207;59.512;18.050;2022-09-27T02:38:36;11.10;99.90
22081;DHT22;11207;59.512;18.050;2022-09-27T02:41:02;11.10;99.90
22081;DHT22;11207;59.512;18.050;2022-09-27T02:43:30;11.10;99.90
22081;DHT22;11207;59.512;18.050;2022-09-27T02:55:22;11.20;99.90
22081;DHT22;11207;59.512;18.050;2022-09-27T02:58:19;11.20;99.90
22081;DHT22;11207;59.512;18.050;2022-09-27T03:00:55;11.20;99.90
22081;DHT22;11207;59.512;18.050;2022-09-27T03:03:25;11.20;99.90
22081;DHT22;11207;59.512;18.050;2022-09-27T03:06:04;11.20;99.90
22081;DHT22;11207;59.512;18.050;2022-09-27T03:08:30;11.20;99.90
22081;DHT22;11207;59.512;18.050;2022-09-27T03:10:56;11.20;99.90
22081;DHT22;11207;59.512;18.050;2022-09-27T03:13:22;11.30;99.90
22081;DHT22;11207;59.512;18.050;2022-09-27T03:15:47;11.30;99.90
22081;DHT22;11207;59.512;18.050;2022-09-27T03:18:13;11.20;99.90
22081;DHT22;11207;59.512;18.050;2022-09-27T03:20:39;11.20;99.90
22081;DHT22;11207;59.512;18.050;2022-09-27T03:23:04;11.30;99.90
22081;DHT22;11207;59.512;18.050;2022-09-27T03:25:30;11.30;99.90
22081;DHT22;11207;59.512;18.050;2022-09-27T03:27:56;11.20;99.90
22081;DHT22;11207;59.512;18.050;2022-09-27T03:30:21;11.20;99.90
22081;DHT22;11207;59.512;18.050;2022-09-27T03:32:47;11.10;99.90
22081;DHT22;11207;59.512;18.050;2022-09-27T03:35:13;11.10;99.90
22081;DHT22;11207;59.512;18.050;2022-09-27T03:37:39;11.10;99.90
22081;DHT22;11207;59.512;18.050;2022-09-27T03:40:06;11.10;99.90
22081;DHT22;11207;59.512;18.050;2022-09-27T03:42:32;10.90;99.90
22081;DHT22;11207;59.512;18.050;2022-09-27T03:44:57;11.00;99.90
22081;DHT22;11207;59.512;18.050;2022-09-27T03:47:23;10.90;99.90
22081;DHT22;11207;59.512;18.050;2022-09-27T03:49:48;10.90;99.90
22081;DHT22;11207;59.512;18.050;2022-09-27T03:52:15;10.90;99.90
22081;DHT22;11207;59.512;18.050;2022-09-27T03:54:43;10.90;99.90
22081;DHT22;11207;59.512;18.050;2022-09-27T03:57:08;10.90;99.90
22081;DHT22;11207;59.512;18.050;2022-09-27T03:59:34;10.90;99.90
22081;DHT22;11207;59.512;18.050;2022-09-27T04:02:00;10.90;99.90
22081;DHT22;11207;59.512;18.050;2022-09-27T04:04:25;10.90;99.90
22081;DHT22;11207;59.512;18.050;2022-09-27T04:06:51;10.90;99.90
22081;DHT22;11207;59.512;18.050;2022-09-27T04:09:16;10.90;99.90
22081;DHT22;11207;59.512;18.050;2022-09-27T04:11:42;10.90;99.90
22081;DHT22;11207;59.512;18.050;2022-09-27T04:14:07;10.90;99.90
22081;DHT22;11207;59.512;18.050;2022-09-27T04:16:34;10.90;99.90
22081;DHT22;11207;59.512;18.050;2022-09-27T04:19:00;10.90;99.90
22081;DHT22;11207;59.512;18.050;2022-09-27T04:21:28;10.90;99.90
22081;DHT22;11207;59.512;18.050;2022-09-27T04:23:54;11.00;99.90
22081;DHT22;11207;59.512;18.050;2022-09-27T04:26:20;11.00;99.90
22081;DHT22;11207;59.512;18.050;2022-09-27T04:28:45;11.10;99.90
22081;DHT22;11207;59.512;18.050;2022-09-27T04:31:11;11.20;99.90
22081;DHT22;11207;59.512;18.050;2022-09-27T04:33:37;11.30;99.90
22081;DHT22;11207;59.512;18.050;2022-09-27T04:36:03;11.40;99.90
22081;DHT22;11207;59.512;18.050;2022-09-27T04:38:47;11.40;99.90
22081;DHT22;11207;59.512;18.050;2022-09-27T04:41:13;11.40;99.90
22081;DHT22;11207;59.512;18.050;2022-09-27T04:43:39;11.30;99.90
22081;DHT22;11207;59.512;18.050;2022-09-27T04:46:04;11.30;99.90
22081;DHT22;11207;59.512;18.050;2022-09-27T04:48:30;11.20;99.90
22081;DHT22;11207;59.512;18.050;2022-09-27T04:50:57;11.20;99.90
22081;DHT22;11207;59.512;18.050;2022-09-27T04:53:23;11.10;99.90
22081;DHT22;11207;59.512;18.050;2022-09-27T04:55:48;11.10;99.90
22081;DHT22;11207;59.512;18.050;2022-09-27T04:58:14;11.00;99.90
22081;DHT22;11207;59.512;18.050;2022-09-27T05:00:40;10.90;99.90
22081;DHT22;11207;59.512;18.050;2022-09-27T05:03:07;10.80;99.90
22081;DHT22;11207;59.512;18.050;2022-09-27T05:05:33;10.80;99.90
22081;DHT22;11207;59.512;18.050;2022-09-27T05:07:58;10.80;99.90
22081;DHT22;11207;59.512;18.050;2022-09-27T05:10:24;10.70;99.90
22081;DHT22;11207;59.512;18.050;2022-09-27T05:12:50;10.70;99.90
22081;DHT22;11207;59.512;18.050;2022-09-27T05:15:16;10.80;99.90
22081;DHT22;11207;59.512;18.050;2022-09-27T05:17:41;10.80;99.90
22081;DHT22;11207;59.512;18.050;2022-09-27T05:20:08;10.80;99.90
22081;DHT22;11207;59.512;18.050;2022-09-27T05:22:35;10.80;99.90
22081;DHT22;11207;59.512;18.050;2022-09-27T05:25:00;10.80;99.90
22081;DHT22;11207;59.512;18.050;2022-09-27T05:27:26;10.80;99.90
22081;DHT22;11207;59.512;18.050;2022-09-27T05:29:51;10.90;99.90
22081;DHT22;11207;59.512;18.050;2022-09-27T05:32:18;10.90;99.90
22081;DHT22;11207;59.512;18.050;2022-09-27T05:34:44;10.90;99.90
22081;DHT22;11207;59.512;18.050;2022-09-27T05:37:10;10.90;99.90
22081;DHT22;11207;59.512;18.050;2022-09-27T05:39:36;10.90;99.90
22081;DHT22;11207;59.512;18.050;2022-09-27T05:42:02;11.10;99.90
22081;DHT22;11207;59.512;18.050;2022-09-27T05:44:29;11.20;99.90
22081;DHT22;11207;59.512;18.050;2022-09-27T05:46:55;11.10;99.90
22081;DHT22;11207;59.512;18.050;2022-09-27T05:49:21;11.20;99.90
22081;DHT22;11207;59.512;18.050;2022-09-27T05:51:47;11.20;99.90
22081;DHT22;11207;59.512;18.050;2022-09-27T05:54:12;11.30;99.90
22081;DHT22;11207;59.512;18.050;2022-09-27T05:56:38;11.30;99.90
22081;DHT22;11207;59.512;18.050;2022-09-27T05:59:04;11.40;99.90
22081;DHT22;11207;59.512;18.050;2022-09-27T06:01:29;11.40;99.90
22081;DHT22;11207;59.512;18.050;2022-09-27T06:03:55;11.50;99.90
22081;DHT22;11207;59.512;18.050;2022-09-27T06:06:20;11.50;99.90
22081;DHT22;11207;59.512;18.050;2022-09-27T06:08:48;11.60;99.90
22081;DHT22;11207;59.512;18.050;2022-09-27T06:11:14;11.60;99.90
22081;DHT22;11207;59.512;18.050;2022-09-27T06:13:40;11.70;99.90
22081;DHT22;11207;59.512;18.050;2022-09-27T06:16:08;11.70;99.90
22081;DHT22;11207;59.512;18.050;2022-09-27T06:18:34;11.70;99.90
22081;DHT22;11207;59.512;18.050;2022-09-27T06:21:01;11.70;99.90
22081;DHT22;11207;59.512;18.050;2022-09-27T06:23:28;11.80;99.90
22081;DHT22;11207;59.512;18.050;2022-09-27T06:26:03;11.80;99.90
22081;DHT22;11207;59.512;18.050;2022-09-27T06:28:29;11.80;99.90
22081;DHT22;11207;59.512;18.050;2022-09-27T06:30:56;11.90;99.90
22081;DHT22;11207;59.512;18.050;2022-09-27T06:33:22;11.90;99.90
22081;DHT22;11207;59.512;18.050;2022-09-27T06:35:47;12.00;99.90
22081;DHT22;11207;59.512;18.050;2022-09-27T06:38:16;12.10;99.90
22081;DHT22;11207;59.512;18.050;2022-09-27T06:40:42;12.10;99.90
22081;DHT22;11207;59.512;18.050;2022-09-27T06:43:13;12.10;99.90
22081;DHT22;11207;59.512;18.050;2022-09-27T06:45:39;12.20;99.90
22081;DHT22;11207;59.512;18.050;2022-09-27T06:48:06;12.20;99.90
22081;DHT22;11207;59.512;18.050;2022-09-27T06:50:35;12.20;99.90
22081;DHT22;11207;59.512;18.050;2022-09-27T06:53:05;12.20;99.90
22081;DHT22;11207;59.512;18.050;2022-09-27T06:55:31;12.30;99.90
22081;DHT22;11207;59.512;18.050;2022-09-27T06:57:58;12.30;99.90
22081;DHT22;11207;59.512;18.050;2022-09-27T07:00:42;12.30;99.90
22081;DHT22;11207;59.512;18.050;2022-09-27T07:03:10;12.30;99.90
22081;DHT22;11207;59.512;18.050;2022-09-27T07:05:37;12.30;99.90
22081;DHT22;11207;59.512;18.050;2022-09-27T07:08:03;12.40;99.90
22081;DHT22;11207;59.512;18.050;2022-09-27T07:10:32;12.40;99.90
22081;DHT22;11207;59.512;18.050;2022-09-27T07:13:09;12.50;99.90
22081;DHT22;11207;59.512;18.050;2022-09-27T07:15:37;12.50;99.90
22081;DHT22;11207;59.512;18.050;2022-09-27T07:18:06;12.50;99.90
22081;DHT22;11207;59.512;18.050;2022-09-27T07:20:33;12.60;99.90
22081;DHT22;11207;59.512;18.050;2022-09-27T07:23:06;12.70;99.90
22081;DHT22;11207;59.512;18.050;2022-09-27T07:25:33;12.80;99.90
22081;DHT22;11207;59.512;18.050;2022-09-27T07:28:04;12.90;99.90
22081;DHT22;11207;59.512;18.050;2022-09-27T07:30:30;13.00;99.90
22081;DHT22;11207;59.512;18.050;2022-09-27T07:33:00;13.00;99.90
22081;DHT22;11207;59.512;18.050;2022-09-27T07:35:27;13.10;99.90
22081;DHT22;11207;59.512;18.050;2022-09-27T07:37:56;13.30;99.90
22081;DHT22;11207;59.512;18.050;2022-09-27T07:40:36;13.40;99.90
22081;DHT22;11207;59.512;18.050;2022-09-27T07:43:03;13.50;99.90
22081;DHT22;11207;59.512;18.050;2022-09-27T07:45:29;13.60;99.90
22081;DHT22;11207;59.512;18.050;2022-09-27T07:47:55;13.60;99.90
22081;DHT22;11207;59.512;18.050;2022-09-27T07:50:21;13.70;99.90
22081;DHT22;11207;59.512;18.050;2022-09-27T07:52:48;13.70;99.90
22081;DHT22;11207;59.512;18.050;2022-09-27T07:55:18;13.70;99.90
22081;DHT22;11207;59.512;18.050;2022-09-27T07:57:44;13.80;99.90
22081;DHT22;11207;59.512;18.050;2022-09-27T08:00:12;13.80;99.90
22081;DHT22;11207;59.512;18.050;2022-09-27T08:02:43;13.80;99.90
22081;DHT22;11207;59.512;18.050;2022-09-27T08:05:10;13.80;99.90
22081;DHT22;11207;59.512;18.050;2022-09-27T08:07:36;13.80;99.90
22081;DHT22;11207;59.512;18.050;2022-09-27T08:10:04;13.80;99.90
22081;DHT22;11207;59.512;18.050;2022-09-27T08:12:31;13.80;99.90
22081;DHT22;11207;59.512;18.050;2022-09-27T08:14:56;13.80;99.90
22081;DHT22;11207;59.512;18.050;2022-09-27T08:17:26;13.70;99.90
22081;DHT22;11207;59.512;18.050;2022-09-27T08:19:52;13.80;99.90
22081;DHT22;11207;59.512;18.050;2022-09-27T08:22:18;13.80;99.90
22081;DHT22;11207;59.512;18.050;2022-09-27T08:24:46;13.80;99.90
22081;DHT22;11207;59.512;18.050;2022-09-27T08:27:12;13.80;99.90
22081;DHT22;11207;59.512;18.050;2022-09-27T08:29:38;13.80;99.90
22081;DHT22;11207;59.512;18.050;2022-09-27T08:32:10;13.80;99.90
22081;DHT22;11207;59.512;18.050;2022-09-27T08:34:36;13.80;99.90
22081;DHT22;11207;59.512;18.050;2022-09-27T08:37:01;13.80;99.90
22081;DHT22;11207;59.512;18.050;2022-09-27T08:39:27;13.90;99.90
22081;DHT22;11207;59.512;18.050;2022-09-27T08:45:12;13.90;99.90
22081;DHT22;11207;59.512;18.050;2022-09-27T08:47:44;13.90;99.90
22081;DHT22;11207;59.512;18.050;2022-09-27T08:50:29;13.90;99.90
22081;DHT22;11207;59.512;18.050;2022-09-27T08:53:16;13.90;99.90
22081;DHT22;11207;59.512;18.050;2022-09-27T08:55:46;13.90;99.90
22081;DHT22;11207;59.512;18.050;2022-09-27T08:58:33;13.80;99.90
22081;DHT22;11207;59.512;18.050;2022-09-27T09:01:12;13.80;99.90
22081;DHT22;11207;59.512;18.050;2022-09-27T09:03:53;13.90;99.90
22081;DHT22;11207;59.512;18.050;2022-09-27T09:06:36;13.90;99.90
22081;DHT22;11207;59.512;18.050;2022-09-27T09:09:33;13.90;99.90
22081;DHT22;11207;59.512;18.050;2022-09-27T09:12:03;13.90;99.90
22081;DHT22;11207;59.512;18.050;2022-09-27T09:26:37;13.90;99.90
22081;DHT22;11207;59.512;18.050;2022-09-27T09:29:23;14.00;99.90
22081;DHT22;11207;59.512;18.050;2022-09-27T09:34:52;14.00;99.90
22081;DHT22;11207;59.512;18.050;2022-09-27T09:37:23;13.90;99.90
22081;DHT22;11207;59.512;18.050;2022-09-27T09:39:59;13.90;99.90
22081;DHT22;11207;59.512;18.050;2022-09-27T09:42:34;13.80;99.90
22081;DHT22;11207;59.512;18.050;2022-09-27T09:45:29;13.80;99.90
22081;DHT22;11207;59.512;18.050;2022-09-27T09:48:09;13.80;99.90
22081;DHT22;11207;59.512;18.050;2022-09-27T09:50:46;13.80;99.90
22081;DHT22;11207;59.512;18.050;2022-09-27T09:53:14;13.80;99.90
22081;DHT22;11207;59.512;18.050;2022-09-27T09:55:44;13.90;99.90
22081;DHT22;11207;59.512;18.050;2022-09-27T10:00:47;14.00;99.90
22081;DHT22;11207;59.512;18.050;2022-09-27T10:03:15;13.90;99.90
22081;DHT22;11207;59.512;18.050;2022-09-27T10:05:42;13.90;99.90
22081;DHT22;11207;59.512;18.050;2022-09-27T10:08:19;13.90;99.90
22081;DHT22;11207;59.512;18.050;2022-09-27T10:10:46;13.90;99.90
22081;DHT22;11207;59.512;18.050;2022-09-27T10:13:20;13.90;99.90
22081;DHT22;11207;59.512;18.050;2022-09-27T10:16:01;13.90;99.90
22081;DHT22;11207;59.512;18.050;2022-09-27T10:18:28;13.90;99.90
22081;DHT22;11207;59.512;18.050;2022-09-27T10:21:06;13.70;99.90
22081;DHT22;11207;59.512;18.050;2022-09-27T10:23:35;13.70;99.90
22081;DHT22;11207;59.512;18.050;2022-09-27T10:26:21;13.60;99.90
22081;DHT22;11207;59.512;18.050;2022-09-27T10:28:47;13.50;99.90
22081;DHT22;11207;59.512;18.050;2022-09-27T10:31:17;13.40;99.90
22081;DHT22;11207;59.512;18.050;2022-09-27T10:33:54;13.40;99.90
22081;DHT22;11207;59.512;18.050;2022-09-27T10:36:24;13.30;99.90
22081;DHT22;11207;59.512;18.050;2022-09-27T10:38:58;13.20;99.90
22081;DHT22;11207;59.512;18.050;2022-09-27T10:41:34;13.20;99.90
22081;DHT22;11207;59.512;18.050;2022-09-27T10:46:50;13.40;99.90
22081;DHT22;11207;59.512;18.050;2022-09-27T10:51:56;13.60;99.90
22081;DHT22;11207;59.512;18.050;2022-09-27T10:54:33;13.70;99.90
22081;DHT22;11207;59.512;18.050;2022-09-27T10:57:03;13.80;99.90
22081;DHT22;11207;59.512;18.050;2022-09-27T10:59:32;13.90;99.90
22081;DHT22;11207;59.512;18.050;2022-09-27T11:01:58;13.90;99.90
22081;DHT22;11207;59.512;18.050;2022-09-27T11:04:29;14.00;99.90
22081;DHT22;11207;59.512;18.050;2022-09-27T11:07:17;14.00;99.90
22081;DHT22;11207;59.512;18.050;2022-09-27T11:09:55;14.00;99.90
22081;DHT22;11207;59.512;18.050;2022-09-27T11:12:27;14.10;99.90
22081;DHT22;11207;59.512;18.050;2022-09-27T11:14:59;14.20;99.90
22081;DHT22;11207;59.512;18.050;2022-09-27T11:17:36;14.30;99.90
22081;DHT22;11207;59.512;18.050;2022-09-27T11:20:35;14.40;99.90
22081;DHT22;11207;59.512;18.050;2022-09-27T11:23:24;14.40;99.90
22081;DHT22;11207;59.512;18.050;2022-09-27T11:26:16;14.50;99.90
22081;DHT22;11207;59.512;18.050;2022-09-27T11:29:26;14.60;99.90
22081;DHT22;11207;59.512;18.050;2022-09-27T11:32:18;14.70;99.90
22081;DHT22;11207;59.512;18.050;2022-09-27T11:37:57;14.80;99.90
22081;DHT22;11207;59.512;18.050;2022-09-27T11:46:29;14.80;99.90
22081;DHT22;11207;59.512;18.050;2022-09-27T11:59:48;14.90;99.90
22081;DHT22;11207;59.512;18.050;2022-09-27T12:02:37;14.90;99.90
22081;DHT22;11207;59.512;18.050;2022-09-27T12:10:27;14.90;99.90
22081;DHT22;11207;59.512;18.050;2022-09-27T12:12:55;14.90;99.90
22081;DHT22;11207;59.512;18.050;2022-09-27T12:15:25;15.00;99.90
22081;DHT22;11207;59.512;18.050;2022-09-27T12:20:41;15.20;99.90
22081;DHT22;11207;59.512;18.050;2022-09-27T12:23:27;15.20;99.90
22081;DHT22;11207;59.512;18.050;2022-09-27T12:25:58;15.10;99.90
22081;DHT22;11207;59.512;18.050;2022-09-27T12:31:32;15.20;99.90
22081;DHT22;11207;59.512;18.050;2022-09-27T12:36:44;15.20;99.90
22081;DHT22;11207;59.512;18.050;2022-09-27T12:39:42;15.20;99.90
22081;DHT22;11207;59.512;18.050;2022-09-27T12:42:24;15.20;99.90
22081;DHT22;11207;59.512;18.050;2022-09-27T12:44:51;15.30;99.90
22081;DHT22;11207;59.512;18.050;2022-09-27T12:47:49;15.30;99.90
22081;DHT22;11207;59.512;18.050;2022-09-27T12:52:51;15.40;99.90
22081;DHT22;11207;59.512;18.050;2022-09-27T12:55:27;15.30;99.90
22081;DHT22;11207;59.512;18.050;2022-09-27T13:03:55;15.20;99.90
22081;DHT22;11207;59.512;18.050;2022-09-27T13:10:06;15.30;99.90
22081;DHT22;11207;59.512;18.050;2022-09-27T13:12:12;15.30;99.90
22081;DHT22;11207;59.512;18.050;2022-09-27T13:15:15;15.20;99.90
22081;DHT22;11207;59.512;18.050;2022-09-27T13:31:03;15.10;99.90
22081;DHT22;11207;59.512;18.050;2022-09-27T13:33:46;15.10;99.90
22081;DHT22;11207;59.512;18.050;2022-09-27T13:36:24;15.10;99.90
22081;DHT22;11207;59.512;18.050;2022-09-27T13:41:52;15.10;99.90
22081;DHT22;11207;59.512;18.050;2022-09-27T13:44:38;15.20;99.90
22081;DHT22;11207;59.512;18.050;2022-09-27T13:47:18;15.20;99.90
22081;DHT22;11207;59.512;18.050;2022-09-27T13:49:49;15.30;99.90
22081;DHT22;11207;59.512;18.050;2022-09-27T13:52:34;15.40;99.90
22081;DHT22;11207;59.512;18.050;2022-09-27T13:55:03;15.40;99.90
22081;DHT22;11207;59.512;18.050;2022-09-27T13:57:54;15.40;99.90
22081;DHT22;11207;59.512;18.050;2022-09-27T14:00:57;15.40;99.90
22081;DHT22;11207;59.512;18.050;2022-09-27T14:03:31;15.30;99.90
22081;DHT22;11207;59.512;18.050;2022-09-27T14:06:05;15.30;99.90
22081;DHT22;11207;59.512;18.050;2022-09-27T14:08:37;15.40;99.90
22081;DHT22;11207;59.512;18.050;2022-09-27T14:11:11;15.40;99.90
22081;DHT22;11207;59.512;18.050;2022-09-27T14:13:38;15.50;99.90
22081;DHT22;11207;59.512;18.050;2022-09-27T14:16:07;15.40;99.90
22081;DHT22;11207;59.512;18.050;2022-09-27T14:18:45;15.40;99.90
22081;DHT22;11207;59.512;18.050;2022-09-27T14:21:26;15.30;99.90
22081;DHT22;11207;59.512;18.050;2022-09-27T14:23:53;15.30;99.90
22081;DHT22;11207;59.512;18.050;2022-09-27T14:26:23;15.30;99.90
22081;DHT22;11207;59.512;18.050;2022-09-27T14:28:49;15.40;99.90
22081;DHT22;11207;59.512;18.050;2022-09-27T14:31:23;15.40;99.90
22081;DHT22;11207;59.512;18.050;2022-09-27T14:33:50;15.40;99.90
22081;DHT22;11207;59.512;18.050;2022-09-27T14:36:32;15.30;99.90
22081;DHT22;11207;59.512;18.050;2022-09-27T14:39:27;15.40;99.90
22081;DHT22;11207;59.512;18.050;2022-09-27T14:42:04;15.40;99.90
22081;DHT22;11207;59.512;18.050;2022-09-27T14:44:31;15.40;99.90
22081;DHT22;11207;59.512;18.050;2022-09-27T14:47:09;15.30;99.90
22081;DHT22;11207;59.512;18.050;2022-09-27T14:49:35;15.30;99.90
22081;DHT22;11207;59.512;18.050;2022-09-27T14:52:27;15.30;99.90
22081;DHT22;11207;59.512;18.050;2022-09-27T14:57:39;15.30;99.90
22081;DHT22;11207;59.512;18.050;2022-09-27T15:02:46;15.20;99.90
22081;DHT22;11207;59.512;18.050;2022-09-27T15:05:15;15.20;99.90
22081;DHT22;11207;59.512;18.050;2022-09-27T15:07:45;15.10;99.90
22081;DHT22;11207;59.512;18.050;2022-09-27T15:10:17;15.20;99.90
22081;DHT22;11207;59.512;18.050;2022-09-27T15:12:49;15.20;99.90
22081;DHT22;11207;59.512;18.050;2022-09-27T15:15:20;15.10;99.90
22081;DHT22;11207;59.512;18.050;2022-09-27T15:17:47;14.90;99.90
22081;DHT22;11207;59.512;18.050;2022-09-27T15:20:25;14.80;99.90
22081;DHT22;11207;59.512;18.050;2022-09-27T15:22:56;14.80;99.90
22081;DHT22;11207;59.512;18.050;2022-09-27T15:30:36;14.70;99.90
22081;DHT22;11207;59.512;18.050;2022-09-27T15:33:03;14.60;99.90
22081;DHT22;11207;59.512;18.050;2022-09-27T15:35:34;14.60;99.90
22081;DHT22;11207;59.512;18.050;2022-09-27T15:41:02;14.50;99.90
22081;DHT22;11207;59.512;18.050;2022-09-27T15:43:35;14.50;99.90
22081;DHT22;11207;59.512;18.050;2022-09-27T15:46:23;14.40;99.90
22081;DHT22;11207;59.512;18.050;2022-09-27T15:52:06;14.40;99.90
22081;DHT22;11207;59.512;18.050;2022-09-27T15:54:32;14.20;99.90
22081;DHT22;11207;59.512;18.050;2022-09-27T15:57:03;14.30;99.90
22081;DHT22;11207;59.512;18.050;2022-09-27T15:59:32;14.20;99.90
22081;DHT22;11207;59.512;18.050;2022-09-27T16:02:16;14.10;99.90
22081;DHT22;11207;59.512;18.050;2022-09-27T16:04:43;14.10;99.90
22081;DHT22;11207;59.512;18.050;2022-09-27T16:07:10;14.10;99.90
22081;DHT22;11207;59.512;18.050;2022-09-27T16:09:39;14.00;99.90
22081;DHT22;11207;59.512;18.050;2022-09-27T16:12:05;14.00;99.90
22081;DHT22;11207;59.512;18.050;2022-09-27T16:14:30;14.00;99.90
22081;DHT22;11207;59.512;18.050;2022-09-27T16:16:56;14.00;99.90
22081;DHT22;11207;59.512;18.050;2022-09-27T16:19:25;13.90;99.90
22081;DHT22;11207;59.512;18.050;2022-09-27T16:21:50;13.80;99.90
22081;DHT22;11207;59.512;18.050;2022-09-27T16:24:16;13.80;99.90
22081;DHT22;11207;59.512;18.050;2022-09-27T16:26:42;13.70;99.90
22081;DHT22;11207;59.512;18.050;2022-09-27T16:29:10;13.70;99.90
22081;DHT22;11207;59.512;18.050;2022-09-27T16:31:37;13.70;99.90
22081;DHT22;11207;59.512;18.050;2022-09-27T16:34:03;13.70;99.90
22081;DHT22;11207;59.512;18.050;2022-09-27T16:36:29;13.60;99.90
22081;DHT22;11207;59.512;18.050;2022-09-27T16:38:55;13.40;99.90
22081;DHT22;11207;59.512;18.050;2022-09-27T16:41:21;13.40;99.90
22081;DHT22;11207;59.512;18.050;2022-09-27T16:43:47;13.40;99.90
22081;DHT22;11207;59.512;18.050;2022-09-27T16:46:14;13.40;99.90
22081;DHT22;11207;59.512;18.050;2022-09-27T16:48:43;13.30;99.90
22081;DHT22;11207;59.512;18.050;2022-09-27T16:51:17;13.30;99.90
22081;DHT22;11207;59.512;18.050;2022-09-27T16:54:02;13.20;99.90
22081;DHT22;11207;59.512;18.050;2022-09-27T16:56:31;13.10;99.90
22081;DHT22;11207;59.512;18.050;2022-09-27T16:58:58;13.10;99.90
22081;DHT22;11207;59.512;18.050;2022-09-27T17:01:25;13.00;99.90
22081;DHT22;11207;59.512;18.050;2022-09-27T17:03:53;13.00;99.90
22081;DHT22;11207;59.512;18.050;2022-09-27T17:06:19;12.90;99.90
22081;DHT22;11207;59.512;18.050;2022-09-27T17:08:45;12.90;99.90
22081;DHT22;11207;59.512;18.050;2022-09-27T17:11:16;12.80;99.90
22081;DHT22;11207;59.512;18.050;2022-09-27T17:13:44;12.70;99.90
22081;DHT22;11207;59.512;18.050;2022-09-27T17:16:11;12.70;99.90
22081;DHT22;11207;59.512;18.050;2022-09-27T17:18:38;12.60;99.90
22081;DHT22;11207;59.512;18.050;2022-09-27T17:21:05;12.70;99.90
22081;DHT22;11207;59.512;18.050;2022-09-27T17:23:32;12.60;99.90
22081;DHT22;11207;59.512;18.050;2022-09-27T17:26:20;12.60;99.90
22081;DHT22;11207;59.512;18.050;2022-09-27T17:28:47;12.60;99.90
22081;DHT22;11207;59.512;18.050;2022-09-27T17:31:14;12.50;99.90
22081;DHT22;11207;59.512;18.050;2022-09-27T17:33:43;12.60;99.90
22081;DHT22;11207;59.512;18.050;2022-09-27T17:36:15;12.60;99.90
22081;DHT22;11207;59.512;18.050;2022-09-27T17:38:42;12.60;99.90
22081;DHT22;11207;59.512;18.050;2022-09-27T17:41:12;12.70;99.90
22081;DHT22;11207;59.512;18.050;2022-09-27T17:43:40;12.80;99.90
22081;DHT22;11207;59.512;18.050;2022-09-27T17:46:13;12.80;99.90
22081;DHT22;11207;59.512;18.050;2022-09-27T17:48:39;12.80;99.90
22081;DHT22;11207;59.512;18.050;2022-09-27T17:51:23;12.80;99.90
22081;DHT22;11207;59.512;18.050;2022-09-27T17:53:50;12.80;99.90
22081;DHT22;11207;59.512;18.050;2022-09-27T17:56:16;12.80;99.90
22081;DHT22;11207;59.512;18.050;2022-09-27T17:58:49;12.80;99.90
22081;DHT22;11207;59.512;18.050;2022-09-27T18:01:16;12.80;99.90
22081;DHT22;11207;59.512;18.050;2022-09-27T18:03:43;12.90;99.90
22081;DHT22;11207;59.512;18.050;2022-09-27T18:06:10;13.00;99.90
22081;DHT22;11207;59.512;18.050;2022-09-27T18:08:41;13.10;99.90